createdAt,value
2018-03-24T00:00:20.403Z,26.95
2018-03-24T00:02:48.777Z,30.95
2018-03-24T00:05:30.513Z,31.87
2018-03-24T00:07:58.132Z,29.48
2018-03-24T00:10:26.515Z,30.33
2018-03-24T00:12:54.931Z,26.65
2018-03-24T00:15:22.588Z,25.48
2018-03-24T00:17:50.177Z,28.17
2018-03-24T00:20:17.810Z,26.87
2018-03-24T00:22:45.435Z,27.02
2018-03-24T00:25:13.863Z,37.47
2018-03-24T00:27:41.475Z,33.40
2018-03-24T00:30:09.899Z,33.40
2018-03-24T00:32:37.520Z,33.63
2018-03-24T00:35:05.901Z,33.80
2018-03-24T00:37:33.550Z,35.10
2018-03-24T00:40:01.930Z,30.75
2018-03-24T00:42:30.329Z,31.17
2018-03-24T00:44:57.986Z,28.38
2018-03-24T00:47:25.627Z,27.33
2018-03-24T00:49:54.004Z,27.13
2018-03-24T00:52:22.351Z,26.40
2018-03-24T00:54:49.950Z,26.58
2018-03-24T00:57:18.380Z,28.20
2018-03-24T00:59:45.994Z,26.00
2018-03-24T01:02:13.639Z,25.50
2018-03-24T01:04:41.276Z,28.58
2018-03-24T01:07:08.850Z,35.63
2018-03-24T01:09:36.471Z,33.60
2018-03-24T01:12:04.050Z,32.72
2018-03-24T01:14:31.664Z,35.42
2018-03-24T01:16:59.306Z,34.78
2018-03-24T01:19:27.677Z,35.38
2018-03-24T01:21:55.286Z,36.50
2018-03-24T01:24:22.905Z,37.15
2018-03-24T01:26:51.238Z,35.90
2018-03-24T01:29:18.876Z,35.78
2018-03-24T01:31:46.475Z,37.58
2018-03-24T01:34:14.087Z,36.53
2018-03-24T01:36:41.700Z,37.22
2018-03-24T01:39:09.332Z,41.30
2018-03-24T01:41:36.938Z,45.12
2018-03-24T01:44:04.563Z,44.22
2018-03-24T01:46:32.140Z,45.50
2018-03-24T01:48:59.744Z,48.38
2018-03-24T01:51:27.374Z,47.35
2018-03-24T01:53:54.926Z,45.10
2018-03-24T01:56:22.538Z,44.97
2018-03-24T01:58:50.102Z,43.72
2018-03-24T02:01:17.750Z,40.20
2018-03-24T02:03:45.372Z,40.65
2018-03-24T02:06:12.948Z,41.40
2018-03-24T02:08:41.327Z,38.42
2018-03-24T02:11:09.717Z,41.33
2018-03-24T02:13:38.108Z,38.28
2018-03-24T02:16:05.665Z,40.92
2018-03-24T02:18:33.234Z,42.25
2018-03-24T02:21:01.777Z,44.50
2018-03-24T02:23:29.407Z,43.20
2018-03-24T02:25:57.000Z,42.85
2018-03-24T02:28:25.363Z,41.42
2018-03-24T02:30:52.988Z,39.65
2018-03-24T02:33:20.568Z,39.28
2018-03-24T02:35:48.167Z,41.97
2018-03-24T02:38:16.537Z,38.33
2018-03-24T02:40:44.931Z,34.53
2018-03-24T02:43:13.274Z,45.70
2018-03-24T02:45:40.890Z,46.65
2018-03-24T02:48:08.452Z,40.35
2018-03-24T02:50:36.081Z,45.10
2018-03-24T02:53:03.670Z,42.67
2018-03-24T02:55:31.256Z,44.20
2018-03-24T02:57:58.906Z,44.83
2018-03-24T03:00:26.519Z,43.35
2018-03-24T03:02:54.907Z,43.05
2018-03-24T03:05:23.279Z,39.25
2018-03-24T03:07:51.652Z,45.45
2018-03-24T03:10:20.051Z,46.92
2018-03-24T03:12:48.450Z,44.78
2018-03-24T03:15:16.075Z,44.50
2018-03-24T03:17:44.470Z,49.58
2018-03-24T03:20:12.096Z,57.17
2018-03-24T03:22:49.556Z,54.78
2018-03-24T03:25:17.241Z,49.90
2018-03-24T03:27:44.831Z,57.85
2018-03-24T03:30:20.742Z,66.37
2018-03-24T03:32:48.306Z,49.05
2018-03-24T03:35:15.879Z,45.08
2018-03-24T03:37:43.439Z,65.20
2018-03-24T03:40:11.074Z,43.33
2018-03-24T03:42:38.686Z,51.42
2018-03-24T03:45:06.309Z,51.53
2018-03-24T03:47:33.931Z,52.17
2018-03-24T03:50:01.561Z,53.60
2018-03-24T03:52:29.930Z,55.12
2018-03-24T03:54:57.541Z,49.92
2018-03-24T03:57:25.214Z,52.75
2018-03-24T03:59:52.847Z,56.80
2018-03-24T04:02:20.449Z,45.90
2018-03-24T04:04:48.073Z,48.40
2018-03-24T04:07:16.454Z,39.90
2018-03-24T04:09:44.081Z,43.25
2018-03-24T04:12:11.707Z,44.97
2018-03-24T04:14:39.299Z,46.50
2018-03-24T04:17:06.893Z,46.60
2018-03-24T04:19:34.514Z,46.85
2018-03-24T04:22:02.133Z,45.72
2018-03-24T04:24:29.704Z,52.00
2018-03-24T04:26:57.291Z,50.63
2018-03-24T04:29:24.894Z,52.00
2018-03-24T04:31:52.517Z,58.40
2018-03-24T04:34:20.158Z,57.83
2018-03-24T04:36:47.815Z,60.90
2018-03-24T04:39:15.427Z,58.45
2018-03-24T04:41:43.061Z,57.58
2018-03-24T04:44:10.695Z,58.25
2018-03-24T04:46:38.275Z,56.00
2018-03-24T04:49:05.927Z,54.53
2018-03-24T04:51:33.577Z,62.38
2018-03-24T04:54:01.180Z,54.72
2018-03-24T04:56:29.575Z,56.63
2018-03-24T04:58:57.201Z,54.70
2018-03-24T05:01:24.839Z,51.13
2018-03-24T05:03:52.448Z,51.67
2018-03-24T05:06:20.792Z,48.38
2018-03-24T05:08:48.419Z,50.17
2018-03-24T05:11:16.029Z,47.35
2018-03-24T05:13:43.632Z,46.20
2018-03-24T05:16:11.263Z,46.03
2018-03-24T05:18:38.856Z,44.30
2018-03-24T05:21:06.455Z,43.53
2018-03-24T05:26:08.124Z,49.05
2018-03-24T05:28:35.661Z,47.47
2018-03-24T05:31:03.214Z,50.53
2018-03-24T05:33:30.762Z,49.45
2018-03-24T05:35:58.990Z,48.38
2018-03-24T05:38:26.518Z,50.60
2018-03-24T05:44:13.390Z,49.88
2018-03-24T05:46:40.934Z,54.60
2018-03-24T05:49:09.450Z,53.80
2018-03-24T05:51:42.288Z,55.75
2018-03-24T05:54:12.958Z,55.17
2018-03-24T05:56:40.539Z,55.28
2018-03-24T05:59:09.114Z,55.90
2018-03-24T06:01:53.871Z,54.97
2018-03-24T06:04:33.882Z,52.53
2018-03-24T06:07:10.501Z,50.65
2018-03-24T06:09:38.831Z,54.60
2018-03-24T06:12:10.359Z,53.58
2018-03-24T06:14:38.725Z,54.95
2018-03-24T06:17:06.362Z,58.30
2018-03-24T06:19:34.002Z,57.08
2018-03-24T06:22:01.566Z,65.50
2018-03-24T06:24:29.179Z,61.47
2018-03-24T06:29:51.210Z,49.78
2018-03-24T06:38:11.308Z,50.15
2018-03-24T06:40:38.931Z,58.55
2018-03-24T06:43:06.544Z,51.80
2018-03-24T06:45:34.158Z,57.58
2018-03-24T06:48:01.838Z,48.85
2018-03-24T06:50:30.235Z,48.17
2018-03-24T06:52:58.619Z,45.75
2018-03-24T06:55:26.279Z,43.40
2018-03-24T06:57:53.861Z,40.40
2018-03-24T07:00:21.462Z,44.15
2018-03-24T07:02:49.046Z,45.33
2018-03-24T07:05:16.671Z,41.80
2018-03-24T07:07:45.059Z,44.22
2018-03-24T07:10:12.699Z,42.85
2018-03-24T07:12:41.075Z,44.75
2018-03-24T07:15:08.690Z,41.63
2018-03-24T07:17:36.324Z,39.67
2018-03-24T07:20:03.996Z,35.45
2018-03-24T07:22:32.338Z,36.58
2018-03-24T07:25:00.657Z,39.10
2018-03-24T07:27:28.255Z,33.97
2018-03-24T07:29:55.842Z,33.38
2018-03-24T07:32:24.167Z,29.35
2018-03-24T07:34:51.775Z,27.10
2018-03-24T07:37:20.120Z,27.92
2018-03-24T07:39:58.766Z,26.05
2018-03-24T07:42:27.196Z,24.00
2018-03-24T07:44:54.803Z,21.08
2018-03-24T07:47:22.379Z,18.75
2018-03-24T07:49:50.830Z,19.37
2018-03-24T07:52:19.150Z,20.30
2018-03-24T07:54:46.766Z,19.08
2018-03-24T07:57:14.337Z,19.45
2018-03-24T07:59:45.722Z,19.20
2018-03-24T08:02:13.314Z,21.95
2018-03-24T08:04:40.900Z,23.05
2018-03-24T08:07:08.523Z,20.60
2018-03-24T08:09:36.174Z,20.45
2018-03-24T08:12:03.802Z,19.00
2018-03-24T08:14:32.240Z,21.27
2018-03-24T08:16:59.899Z,21.37
2018-03-24T08:19:27.541Z,21.10
2018-03-24T08:21:55.188Z,21.63
2018-03-24T08:24:22.772Z,22.50
2018-03-24T08:26:50.414Z,21.33
2018-03-24T08:29:18.020Z,21.87
2018-03-24T08:31:45.591Z,21.80
2018-03-24T08:34:13.160Z,22.10
2018-03-24T08:36:40.797Z,21.47
2018-03-24T08:39:08.373Z,20.70
2018-03-24T08:41:35.997Z,21.80
2018-03-24T08:44:03.589Z,23.00
2018-03-24T08:46:31.222Z,22.60
2018-03-24T08:48:58.863Z,22.13
2018-03-24T08:51:26.443Z,22.57
2018-03-24T08:53:54.033Z,23.17
2018-03-24T08:56:21.632Z,22.07
2018-03-24T08:58:49.184Z,21.47
2018-03-24T09:01:16.788Z,21.90
2018-03-24T09:03:44.358Z,21.90
2018-03-24T09:06:11.936Z,24.00
2018-03-24T09:08:39.503Z,23.40
2018-03-24T09:11:07.139Z,21.57
2018-03-24T09:13:34.740Z,22.23
2018-03-24T09:16:03.112Z,21.33
2018-03-24T09:18:30.701Z,20.70
2018-03-24T09:20:58.972Z,22.20
2018-03-24T09:23:26.639Z,20.70
2018-03-24T09:25:54.230Z,17.97
2018-03-24T09:28:21.864Z,17.47
2018-03-24T09:30:49.445Z,18.23
2018-03-24T09:33:17.061Z,14.70
2018-03-24T09:35:45.427Z,15.70
2018-03-24T09:38:13.768Z,15.37
2018-03-24T09:40:41.398Z,15.20
2018-03-24T09:43:08.962Z,13.97
2018-03-24T09:45:42.872Z,13.70
2018-03-24T09:48:10.467Z,12.20
2018-03-24T09:50:38.088Z,9.63
2018-03-24T09:53:05.678Z,9.37
2018-03-24T09:55:33.318Z,9.27
2018-03-24T10:01:06.805Z,8.87
2018-03-24T10:03:34.440Z,9.10
2018-03-24T10:06:02.050Z,9.30
2018-03-24T10:08:29.646Z,9.80
2018-03-24T10:10:57.310Z,8.90
2018-03-24T10:13:24.896Z,9.87
2018-03-24T10:15:53.321Z,8.70
2018-03-24T10:18:20.974Z,9.73
2018-03-24T10:24:26.526Z,9.53
2018-03-24T10:26:54.078Z,9.23
2018-03-24T10:29:22.374Z,9.33
2018-03-24T10:31:49.914Z,9.17
2018-03-24T10:34:18.216Z,8.70
2018-03-24T10:36:45.770Z,8.40
2018-03-24T10:39:13.332Z,9.50
2018-03-24T10:41:40.932Z,9.93
2018-03-24T10:44:08.530Z,9.13
2018-03-24T10:46:36.099Z,9.03
2018-03-24T10:49:03.733Z,9.40
2018-03-24T10:51:32.064Z,9.63
2018-03-24T10:53:59.640Z,9.47
2018-03-24T10:56:27.243Z,9.20
2018-03-24T10:58:55.606Z,8.87
2018-03-24T11:01:24.012Z,9.33
2018-03-24T11:03:51.623Z,10.47
2018-03-24T11:06:19.235Z,9.20
2018-03-24T11:08:46.852Z,10.33
2018-03-24T11:11:14.441Z,10.83
2018-03-24T11:13:42.057Z,9.10
2018-03-24T11:16:09.655Z,9.47
2018-03-24T11:18:38.015Z,11.00
2018-03-24T11:21:29.900Z,12.07
2018-03-24T11:24:16.708Z,10.57
2018-03-24T11:26:47.499Z,11.40
2018-03-24T11:29:15.861Z,13.37
2018-03-24T11:34:37.931Z,9.40
2018-03-24T11:37:05.531Z,9.90
2018-03-24T11:39:41.295Z,10.20
2018-03-24T11:42:08.907Z,10.53
2018-03-24T11:44:37.257Z,10.93
2018-03-24T11:47:04.829Z,11.17
2018-03-24T11:49:32.440Z,11.23
2018-03-24T11:52:00.931Z,10.53
2018-03-24T11:54:40.318Z,11.73
2018-03-24T11:57:08.734Z,11.23
2018-03-24T11:59:36.298Z,11.07
2018-03-24T12:02:04.661Z,11.80
2018-03-24T12:04:32.220Z,11.83
2018-03-24T12:06:59.790Z,12.20
2018-03-24T12:09:27.344Z,12.53
2018-03-24T12:11:54.906Z,13.00
2018-03-24T12:14:22.538Z,12.53
2018-03-24T12:25:34.823Z,12.93
2018-03-24T12:28:02.483Z,13.53
2018-03-24T12:30:30.051Z,13.63
2018-03-24T12:32:57.668Z,14.33
2018-03-24T12:35:25.224Z,13.50
2018-03-24T12:37:52.828Z,14.13
2018-03-24T12:40:21.413Z,13.60
2018-03-24T12:42:48.973Z,15.20
2018-03-24T12:45:16.585Z,13.33
2018-03-24T12:47:44.182Z,13.70
2018-03-24T12:50:11.771Z,13.97
2018-03-24T12:52:39.354Z,13.90
2018-03-24T12:55:06.935Z,13.20
2018-03-24T12:57:35.268Z,13.30
2018-03-24T13:00:02.831Z,14.03
2018-03-24T13:02:30.391Z,14.40
2018-03-24T13:04:58.013Z,13.97
2018-03-24T13:07:25.587Z,14.60
2018-03-24T13:09:53.208Z,13.50
2018-03-24T13:12:20.815Z,15.43
2018-03-24T13:14:48.398Z,13.90
2018-03-24T13:17:16.015Z,14.00
2018-03-24T13:19:43.703Z,14.63
2018-03-24T13:22:12.045Z,14.37
2018-03-24T13:24:40.399Z,13.87
2018-03-24T13:27:08.019Z,13.13
2018-03-24T13:29:35.596Z,14.93
2018-03-24T13:32:03.228Z,14.20
2018-03-24T13:34:30.861Z,14.53
2018-03-24T13:36:59.235Z,18.23
2018-03-24T13:39:27.622Z,15.23
2018-03-24T13:41:55.979Z,14.30
2018-03-24T13:44:23.596Z,13.83
2018-03-24T13:46:51.193Z,17.17
2018-03-24T13:49:18.837Z,16.70
2018-03-24T13:51:46.442Z,13.40
2018-03-24T13:54:14.778Z,12.80
2018-03-24T13:56:42.348Z,12.90
2018-03-24T13:59:09.935Z,14.37
2018-03-24T14:01:38.286Z,13.90
2018-03-24T14:04:05.908Z,13.10
2018-03-24T14:06:33.508Z,14.50
2018-03-24T14:09:01.139Z,14.30
2018-03-24T14:11:28.721Z,15.80
2018-03-24T14:17:00.143Z,16.13
2018-03-24T14:19:27.702Z,16.03
2018-03-24T14:21:55.271Z,15.97
2018-03-24T14:24:22.877Z,15.37
2018-03-24T14:26:50.527Z,15.50
2018-03-24T14:29:18.131Z,17.27
2018-03-24T14:37:38.068Z,22.40
2018-03-24T14:40:09.284Z,14.43
2018-03-24T14:51:34.822Z,15.10
2018-03-24T14:54:02.446Z,13.60
2018-03-24T14:56:30.028Z,13.27
2018-03-24T14:58:57.624Z,14.80
2018-03-24T15:01:26.018Z,16.03
2018-03-24T15:03:53.636Z,17.40
2018-03-24T15:06:21.231Z,16.00
2018-03-24T15:08:49.646Z,15.93
2018-03-24T15:11:21.164Z,15.03
2018-03-24T15:13:48.787Z,16.17
2018-03-24T15:16:16.511Z,15.50
2018-03-24T15:18:44.114Z,16.30
2018-03-24T15:21:11.711Z,14.43
2018-03-24T15:23:40.071Z,16.00
2018-03-24T15:26:07.720Z,17.80
2018-03-24T15:28:35.377Z,14.50
2018-03-24T15:31:11.838Z,15.07
2018-03-24T15:33:51.323Z,15.20
2018-03-24T15:36:30.607Z,15.23
2018-03-24T15:38:58.203Z,15.20
2018-03-24T15:41:26.551Z,15.87
2018-03-24T15:43:54.135Z,15.67
2018-03-24T15:46:22.523Z,16.50
2018-03-24T15:48:51.642Z,16.00
2018-03-24T15:51:20.260Z,15.97
2018-03-24T15:53:47.921Z,18.00
2018-03-24T15:56:15.559Z,17.10
2018-03-24T15:58:43.200Z,14.90
2018-03-24T16:01:10.775Z,16.30
2018-03-24T16:03:38.436Z,15.90
2018-03-24T16:06:06.058Z,15.93
2018-03-24T16:08:33.681Z,15.17
2018-03-24T16:11:01.291Z,15.47
2018-03-24T16:13:28.891Z,14.50
2018-03-24T16:15:56.515Z,14.77
2018-03-24T16:18:24.871Z,14.40
2018-03-24T16:20:53.523Z,14.30
2018-03-24T16:23:21.103Z,14.77
2018-03-24T16:25:48.752Z,14.93
2018-03-24T16:28:16.360Z,14.83
2018-03-24T16:30:48.690Z,14.40
2018-03-24T16:33:16.371Z,14.63
2018-03-24T16:35:43.960Z,15.97
2018-03-24T16:38:11.592Z,15.93
2018-03-24T16:40:39.230Z,14.47
2018-03-24T16:43:06.892Z,16.47
2018-03-24T16:45:44.597Z,17.00
2018-03-24T16:48:12.279Z,17.53
2018-03-24T16:50:57.078Z,16.30
2018-03-24T16:53:25.664Z,16.47
2018-03-24T16:56:05.806Z,15.77
2018-03-24T16:58:35.424Z,15.20
2018-03-24T17:01:06.595Z,15.10
2018-03-24T17:03:34.218Z,14.70
2018-03-24T17:06:01.843Z,15.20
2018-03-24T17:08:38.332Z,15.67
2018-03-24T17:11:05.953Z,16.03
2018-03-24T17:13:33.568Z,15.10
2018-03-24T17:16:01.231Z,15.33
2018-03-24T17:18:28.828Z,15.20
2018-03-24T17:20:56.445Z,14.93
2018-03-24T17:23:45.966Z,14.70
2018-03-24T17:26:13.667Z,14.00
2018-03-24T17:28:41.187Z,15.57
2018-03-24T17:31:08.887Z,15.70
2018-03-24T17:33:36.481Z,15.10
2018-03-24T17:36:04.105Z,14.93
2018-03-24T17:38:32.464Z,15.05
2018-03-24T17:41:19.220Z,15.63
2018-03-24T17:43:46.804Z,15.70
2018-03-24T17:46:14.456Z,15.67
2018-03-24T17:48:42.084Z,16.53
2018-03-24T17:51:10.451Z,15.65
2018-03-24T17:53:38.802Z,16.25
2018-03-24T17:56:06.434Z,15.95
2018-03-24T17:58:34.067Z,15.95
2018-03-24T18:01:02.431Z,15.90
2018-03-24T18:03:30.055Z,15.52
2018-03-24T18:05:57.718Z,15.57
2018-03-24T18:08:25.311Z,17.40
2018-03-24T18:10:52.934Z,15.60
2018-03-24T18:13:20.604Z,15.10
2018-03-24T18:15:48.244Z,16.27
2018-03-24T18:18:15.812Z,16.40
2018-03-24T18:20:43.454Z,16.17
2018-03-24T18:23:11.032Z,14.98
2018-03-24T18:25:38.866Z,14.95
2018-03-24T18:28:07.255Z,16.15
2018-03-24T18:30:39.398Z,15.60
2018-03-24T18:33:07.794Z,15.80
2018-03-24T18:35:36.200Z,15.25
2018-03-24T18:38:03.812Z,15.57
2018-03-24T18:40:32.207Z,16.30
2018-03-24T18:43:00.644Z,15.57
2018-03-24T18:45:28.281Z,15.60
2018-03-24T18:47:56.854Z,15.45
2018-03-24T18:50:24.470Z,14.90
2018-03-24T18:55:55.618Z,13.93
2018-03-24T18:58:23.236Z,14.80
2018-03-24T19:00:50.840Z,15.30
2018-03-24T19:03:23.142Z,14.85
2018-03-24T19:05:51.550Z,13.73
2018-03-24T19:08:19.898Z,15.80
2018-03-24T19:10:48.256Z,15.25
2018-03-24T19:16:11.679Z,16.75
2018-03-24T19:18:39.333Z,16.33
2018-03-24T19:21:06.918Z,17.00
2018-03-24T19:23:34.523Z,17.15
2018-03-24T19:26:02.146Z,16.52
2018-03-24T19:28:29.796Z,16.55
2018-03-24T19:30:57.388Z,16.50
2018-03-24T19:33:24.973Z,16.80
2018-03-24T19:35:53.392Z,17.20
2018-03-24T19:38:21.009Z,18.35
2018-03-24T19:40:49.400Z,17.08
2018-03-24T19:43:17.034Z,18.45
2018-03-24T19:45:44.664Z,18.65
2018-03-24T19:48:12.313Z,17.12
2018-03-24T19:50:39.945Z,17.10
2018-03-24T19:53:07.591Z,18.60
2018-03-24T19:55:35.958Z,38.17
2018-03-24T19:58:03.607Z,41.05
2018-03-24T20:00:31.188Z,30.40
2018-03-24T20:03:00.834Z,21.80
2018-03-24T20:05:28.460Z,27.25
2018-03-24T20:07:56.840Z,19.70
2018-03-24T20:10:25.218Z,26.55
2018-03-24T20:12:53.563Z,22.50
2018-03-24T20:15:21.207Z,21.52
2018-03-24T20:17:48.831Z,19.62
2018-03-24T20:20:17.280Z,20.12
2018-03-24T20:22:44.874Z,21.23
2018-03-24T20:25:13.279Z,21.08
2018-03-24T20:27:40.873Z,19.60
2018-03-24T20:30:08.522Z,21.37
2018-03-24T20:32:36.143Z,22.05
2018-03-24T20:35:03.780Z,21.75
2018-03-24T20:37:31.393Z,21.02
2018-03-24T20:39:58.990Z,24.20
2018-03-24T20:42:26.604Z,22.75
2018-03-24T20:44:54.221Z,21.98
2018-03-24T20:47:21.846Z,23.85
2018-03-24T20:49:49.405Z,23.50
2018-03-24T20:52:17.041Z,23.40
2018-03-24T20:54:44.628Z,24.30
2018-03-24T20:57:12.188Z,22.95
2018-03-24T20:59:39.813Z,24.77
2018-03-24T21:02:07.436Z,23.83
2018-03-24T21:04:35.066Z,23.00
2018-03-24T21:07:02.700Z,29.42
2018-03-24T21:09:30.387Z,25.10
2018-03-24T21:11:57.983Z,24.87
2018-03-24T21:14:25.644Z,24.65
2018-03-24T21:16:53.271Z,26.30
2018-03-24T21:19:20.866Z,25.55
2018-03-24T21:21:48.550Z,25.83
2018-03-24T21:24:16.168Z,26.83
2018-03-24T21:26:43.715Z,27.00
2018-03-24T21:29:11.290Z,27.85
2018-03-24T21:31:38.987Z,26.60
2018-03-24T21:34:06.609Z,26.80
2018-03-24T21:36:34.204Z,30.62
2018-03-24T21:39:02.559Z,32.40
2018-03-24T21:41:30.199Z,32.55
2018-03-24T21:43:57.790Z,32.55
2018-03-24T21:46:25.380Z,29.15
2018-03-24T21:48:53.004Z,29.33
2018-03-24T21:51:20.601Z,28.80
2018-03-24T21:53:48.237Z,28.83
2018-03-24T21:56:16.604Z,28.75
2018-03-24T21:58:44.222Z,29.95
2018-03-24T22:01:11.860Z,30.65
2018-03-24T22:03:39.478Z,29.30
2018-03-24T22:06:07.076Z,29.90
2018-03-24T22:08:34.728Z,32.13
2018-03-24T22:11:03.152Z,34.38
2018-03-24T22:13:30.824Z,33.15
2018-03-24T22:15:58.450Z,34.00
2018-03-24T22:18:26.144Z,32.00
2018-03-24T22:20:53.860Z,32.55
2018-03-24T22:23:22.247Z,32.70
2018-03-24T22:25:49.872Z,32.58
2018-03-24T22:28:17.474Z,31.77
2018-03-24T22:30:45.076Z,34.30
2018-03-24T22:33:12.646Z,30.90
2018-03-24T22:41:29.467Z,28.58
2018-03-24T22:43:57.063Z,28.77
2018-03-24T22:46:24.692Z,31.00
2018-03-24T22:48:53.044Z,29.73
2018-03-24T22:51:20.704Z,31.17
2018-03-24T22:53:48.317Z,31.92
2018-03-24T22:56:15.942Z,35.22
2018-03-24T22:58:43.565Z,37.10
2018-03-24T23:01:11.933Z,52.88
2018-03-24T23:03:40.339Z,37.38
2018-03-24T23:06:07.968Z,35.08
2018-03-24T23:08:35.587Z,36.55
2018-03-24T23:11:03.199Z,35.72
2018-03-24T23:13:31.600Z,40.72
2018-03-24T23:15:59.227Z,43.60
2018-03-24T23:18:26.830Z,36.53
2018-03-24T23:20:54.442Z,45.15
2018-03-24T23:23:22.029Z,39.20
2018-03-24T23:25:50.432Z,37.95
2018-03-24T23:28:18.800Z,31.30
2018-03-24T23:30:46.378Z,31.17
2018-03-24T23:33:14.041Z,31.27
2018-03-24T23:35:41.670Z,30.37
2018-03-24T23:38:09.314Z,30.42
2018-03-24T23:40:37.688Z,30.55
2018-03-24T23:43:05.294Z,29.37
2018-03-24T23:45:32.874Z,28.48
2018-03-24T23:48:00.487Z,29.02
2018-03-24T23:50:28.837Z,27.87
2018-03-24T23:52:56.449Z,28.83
2018-03-24T23:55:24.072Z,28.02
2018-03-24T23:57:52.432Z,28.87
